createdAt,value
2023-05-10T00:02:00.435Z,91.64
2023-05-10T00:04:34.452Z,92.37
2023-05-10T00:07:04.203Z,93.72
2023-05-10T00:09:32.353Z,92.68
2023-05-10T00:12:01.161Z,92.78
2023-05-10T00:14:29.472Z,92.86
2023-05-10T00:16:57.990Z,93.37
2023-05-10T00:19:28.258Z,93.02
2023-05-10T00:21:56.654Z,93.40
2023-05-10T00:24:26.401Z,93.13
2023-05-10T00:26:57.089Z,92.35
2023-05-10T00:29:27.826Z,92.57
2023-05-10T00:32:04.394Z,92.62
2023-05-10T00:34:35.985Z,93.67
2023-05-10T00:37:10.119Z,93.03
2023-05-10T00:39:39.976Z,93.35
2023-05-10T00:42:08.354Z,92.89
2023-05-10T00:44:36.866Z,93.40
2023-05-10T00:47:05.539Z,93.33
2023-05-10T00:49:34.012Z,93.50
2023-05-10T00:52:03.118Z,93.48
2023-05-10T00:54:32.347Z,93.09
2023-05-10T00:57:07.862Z,93.12
2023-05-10T00:59:41.915Z,93.55
2023-05-10T01:02:10.323Z,92.96
2023-05-10T01:04:39.912Z,92.79
2023-05-10T01:07:20.193Z,93.36
2023-05-10T01:09:53.237Z,93.14
2023-05-10T01:12:23.423Z,93.73
2023-05-10T01:14:52.056Z,93.20
2023-05-10T01:17:22.082Z,92.89
2023-05-10T01:19:51.058Z,93.17
2023-05-10T01:22:53.768Z,93.19
2023-05-10T01:25:51.157Z,92.95
2023-05-10T01:28:53.778Z,92.31
2023-05-10T01:31:41.494Z,93.10
2023-05-10T01:34:15.309Z,92.22
2023-05-10T01:36:53.401Z,92.51
2023-05-10T01:39:34.865Z,93.41
2023-05-10T01:42:10.365Z,93.11
2023-05-10T01:44:46.302Z,93.69
2023-05-10T01:47:19.375Z,94.29
2023-05-10T01:49:54.180Z,94.77
2023-05-10T01:52:29.143Z,94.94
2023-05-10T01:55:04.165Z,94.79
2023-05-10T01:57:37.160Z,94.70
2023-05-10T02:00:08.999Z,95.29
2023-05-10T02:02:43.129Z,95.96
2023-05-10T02:05:16.843Z,94.44
2023-05-10T02:07:46.499Z,94.23
2023-05-10T02:10:18.082Z,93.56
2023-05-10T02:12:50.705Z,93.10
2023-05-10T02:15:23.256Z,93.22
2023-05-10T02:17:52.094Z,93.65
2023-05-10T02:20:24.452Z,94.28
2023-05-10T02:22:56.304Z,93.48
2023-05-10T02:25:26.661Z,93.63
2023-05-10T02:27:58.062Z,93.63
2023-05-10T02:30:27.402Z,94.41
2023-05-10T02:32:59.855Z,94.70
2023-05-10T02:35:30.982Z,94.99
2023-05-10T02:38:01.298Z,94.53
2023-05-10T02:40:30.729Z,94.35
2023-05-10T02:43:03.573Z,94.55
2023-05-10T02:45:34.301Z,95.01
2023-05-10T02:48:02.473Z,94.58
2023-05-10T02:50:35.590Z,94.35
2023-05-10T02:53:11.137Z,94.82
2023-05-10T02:55:42.609Z,94.22
2023-05-10T02:58:10.596Z,94.43
2023-05-10T03:00:41.168Z,94.55
2023-05-10T03:03:09.431Z,93.71
2023-05-10T03:05:38.765Z,94.61
2023-05-10T03:08:07.324Z,94.36
2023-05-10T03:10:43.818Z,94.31
2023-05-10T03:13:24.116Z,93.98
2023-05-10T03:16:03.873Z,94.13
2023-05-10T03:18:46.344Z,94.83
2023-05-10T03:21:20.026Z,94.89
2023-05-10T03:23:58.805Z,95.12
2023-05-10T03:26:29.617Z,95.08
2023-05-10T03:28:59.929Z,94.98
2023-05-10T03:31:28.167Z,94.71
2023-05-10T03:33:58.332Z,95.37
2023-05-10T03:36:27.641Z,95.94
2023-05-10T03:38:55.598Z,96.15
2023-05-10T03:41:23.424Z,96.12
2023-05-10T03:43:51.290Z,95.78
2023-05-10T03:46:19.158Z,96.01
2023-05-10T03:48:47.101Z,95.33
2023-05-10T03:51:14.970Z,94.92
2023-05-10T03:53:44.141Z,94.40
2023-05-10T03:56:11.953Z,94.29
2023-05-10T03:58:39.754Z,93.10
2023-05-10T04:01:07.614Z,94.61
2023-05-10T04:03:36.590Z,93.98
2023-05-10T04:06:04.856Z,93.22
2023-05-10T04:08:33.226Z,93.28
2023-05-10T04:11:09.443Z,93.18
2023-05-10T04:13:37.598Z,92.90
2023-05-10T04:16:06.283Z,93.69
2023-05-10T04:18:34.103Z,93.61
2023-05-10T04:21:01.912Z,93.65
2023-05-10T04:23:29.928Z,94.35
2023-05-10T04:26:02.728Z,93.50
2023-05-10T04:28:32.003Z,93.81
2023-05-10T04:31:03.740Z,93.55
2023-05-10T04:33:31.971Z,93.83
2023-05-10T04:36:00.075Z,94.04
2023-05-10T04:38:27.995Z,94.17
2023-05-10T04:40:56.213Z,93.43
2023-05-10T04:43:24.016Z,93.80
2023-05-10T04:45:53.280Z,94.11
2023-05-10T04:48:21.074Z,94.13
2023-05-10T04:50:48.852Z,93.92
2023-05-10T04:53:16.633Z,94.11
2023-05-10T04:55:44.536Z,94.40
2023-05-10T04:58:12.287Z,94.27
2023-05-10T05:00:40.202Z,93.77
2023-05-10T05:03:09.615Z,94.07
2023-05-10T05:05:37.552Z,94.00
2023-05-10T05:08:05.936Z,94.14
2023-05-10T05:10:33.997Z,93.62
2023-05-10T05:13:01.978Z,94.20
2023-05-10T05:15:30.976Z,93.91
2023-05-10T05:17:58.920Z,93.69
2023-05-10T05:20:28.416Z,93.73
2023-05-10T05:22:56.232Z,93.32
2023-05-10T05:25:24.153Z,93.28
2023-05-10T05:27:51.914Z,92.88
2023-05-10T05:30:19.796Z,93.14
2023-05-10T05:32:48.032Z,92.82
2023-05-10T05:35:16.304Z,92.37
2023-05-10T05:37:45.662Z,91.74
2023-05-10T05:40:15.048Z,92.65
2023-05-10T05:42:42.927Z,93.04
2023-05-10T05:45:14.212Z,92.57
2023-05-10T05:47:42.409Z,92.23
2023-05-10T05:50:13.171Z,92.83
2023-05-10T05:52:41.026Z,91.93
2023-05-10T05:55:10.655Z,92.64
2023-05-10T05:57:41.476Z,92.33
2023-05-10T06:00:13.081Z,92.04
2023-05-10T06:02:41.196Z,92.35
2023-05-10T06:05:10.061Z,91.90
2023-05-10T06:07:37.902Z,91.65
2023-05-10T06:10:06.817Z,92.05
2023-05-10T06:12:36.005Z,92.54
2023-05-10T06:15:04.254Z,91.68
2023-05-10T06:17:32.162Z,91.03
2023-05-10T06:19:59.974Z,92.32
2023-05-10T06:22:27.979Z,92.08
2023-05-10T06:24:55.760Z,91.97
2023-05-10T06:27:24.110Z,91.72
2023-05-10T06:30:02.090Z,91.45
2023-05-10T06:32:37.399Z,90.79
2023-05-10T06:35:05.710Z,90.56
2023-05-10T06:37:33.535Z,90.82
2023-05-10T06:40:01.497Z,91.10
2023-05-10T06:42:29.378Z,90.88
2023-05-10T06:44:58.555Z,90.01
2023-05-10T06:47:26.845Z,89.48
2023-05-10T06:49:54.715Z,90.27
2023-05-10T06:52:22.577Z,90.18
2023-05-10T06:54:50.783Z,89.15
2023-05-10T06:57:30.539Z,88.66
2023-05-10T07:00:01.897Z,89.15
2023-05-10T07:02:30.206Z,88.31
2023-05-10T07:05:00.894Z,89.13
2023-05-10T07:07:30.813Z,88.87
2023-05-10T07:09:58.768Z,89.25
2023-05-10T07:12:27.063Z,89.43
2023-05-10T07:14:55.418Z,92.06
2023-05-10T07:17:24.669Z,92.37
2023-05-10T07:19:52.691Z,92.47
2023-05-10T07:22:20.551Z,92.14
2023-05-10T07:24:48.375Z,91.73
2023-05-10T07:27:16.210Z,91.65
2023-05-10T07:29:44.038Z,91.48
2023-05-10T07:32:11.912Z,91.82
2023-05-10T07:34:43.582Z,91.88
2023-05-10T07:37:11.403Z,92.39
2023-05-10T07:39:42.389Z,92.35
2023-05-10T07:42:10.381Z,90.38
2023-05-10T07:44:38.226Z,91.09
2023-05-10T07:47:06.201Z,90.38
2023-05-10T07:49:34.012Z,90.35
2023-05-10T07:52:04.815Z,90.96
2023-05-10T07:54:32.815Z,90.45
2023-05-10T07:57:00.744Z,88.68
2023-05-10T07:59:28.850Z,88.19
2023-05-10T08:01:57.151Z,86.59
2023-05-10T08:04:25.260Z,84.95
2023-05-10T08:06:53.169Z,85.45
2023-05-10T08:09:25.100Z,84.22
2023-05-10T08:11:53.209Z,84.63
2023-05-10T08:14:30.132Z,84.04
2023-05-10T08:16:58.428Z,81.03
2023-05-10T08:19:26.286Z,81.68
2023-05-10T08:21:56.458Z,82.41
2023-05-10T08:24:25.929Z,80.38
2023-05-10T08:26:56.053Z,80.88
2023-05-10T08:29:24.013Z,78.64
2023-05-10T08:31:55.822Z,79.71
2023-05-10T08:34:23.765Z,78.75
2023-05-10T08:36:51.937Z,77.93
2023-05-10T08:39:29.745Z,77.40
2023-05-10T08:42:04.647Z,75.74
2023-05-10T08:44:36.196Z,74.97
2023-05-10T08:47:08.474Z,75.15
2023-05-10T08:49:37.119Z,73.23
2023-05-10T08:52:06.464Z,70.73
2023-05-10T08:54:38.430Z,71.14
2023-05-10T08:57:08.048Z,69.63
2023-05-10T08:59:36.309Z,70.28
2023-05-10T09:02:06.797Z,70.61
2023-05-10T09:04:35.023Z,71.67
2023-05-10T09:07:03.184Z,73.01
2023-05-10T09:09:31.343Z,71.34
2023-05-10T09:11:59.238Z,73.32
2023-05-10T09:14:29.021Z,72.22
2023-05-10T09:16:58.532Z,72.33
2023-05-10T09:19:28.822Z,70.42
2023-05-10T09:21:56.781Z,72.39
2023-05-10T09:24:28.825Z,70.25
2023-05-10T09:26:59.382Z,71.29
2023-05-10T09:29:28.600Z,71.83
2023-05-10T09:31:56.548Z,71.65
2023-05-10T10:24:46.575Z,69.15
2023-05-10T10:27:25.708Z,71.12
2023-05-10T10:30:06.010Z,71.85
2023-05-10T10:32:52.222Z,72.45
2023-05-10T10:35:20.486Z,74.70
2023-05-10T10:37:52.083Z,74.68
2023-05-10T10:40:30.441Z,74.12
2023-05-10T10:43:00.522Z,74.64
2023-05-10T10:45:28.465Z,75.14
2023-05-10T10:48:24.138Z,73.02
2023-05-10T10:51:02.324Z,71.79
2023-05-10T10:53:30.492Z,73.03
2023-05-10T10:56:10.291Z,74.07
2023-05-10T10:58:40.334Z,74.40
2023-05-10T11:01:14.153Z,74.14
2023-05-10T11:03:44.801Z,74.53
2023-05-10T11:06:12.744Z,74.73
2023-05-10T11:08:45.952Z,73.65
2023-05-10T11:11:17.365Z,74.03
2023-05-10T11:13:50.815Z,73.66
2023-05-10T11:16:21.604Z,73.94
2023-05-10T11:19:12.486Z,73.38
2023-05-10T11:21:51.852Z,73.58
2023-05-10T11:24:21.943Z,73.85
2023-05-10T11:26:53.333Z,72.98
2023-05-10T11:29:30.215Z,73.32
2023-05-10T11:31:59.995Z,73.29
2023-05-10T11:34:30.571Z,73.66
2023-05-10T11:36:59.410Z,72.71
2023-05-10T11:39:29.665Z,73.06
2023-05-10T11:42:00.334Z,72.48
2023-05-10T11:44:32.435Z,71.58
2023-05-10T11:47:04.540Z,73.66
2023-05-10T11:49:33.014Z,72.52
2023-05-10T11:52:08.376Z,71.33
2023-05-10T11:54:36.979Z,71.36
2023-05-10T11:57:06.756Z,69.92
2023-05-10T11:59:34.628Z,70.86
2023-05-10T12:02:04.228Z,72.09
2023-05-10T12:04:33.051Z,72.51
2023-05-10T12:07:01.411Z,71.69
2023-05-10T12:09:42.724Z,71.75
2023-05-10T12:12:18.394Z,72.19
2023-05-10T12:14:46.271Z,72.88
2023-05-10T12:17:14.504Z,72.80
2023-05-10T12:19:44.759Z,74.32
2023-05-10T12:22:12.712Z,74.28
2023-05-10T12:24:40.616Z,74.30
2023-05-10T12:27:10.754Z,74.57
2023-05-10T12:29:45.840Z,71.27
2023-05-10T12:32:13.830Z,69.19
2023-05-10T12:34:41.754Z,69.78
2023-05-10T12:37:09.688Z,70.31
2023-05-10T12:39:42.100Z,70.96
2023-05-10T12:42:13.613Z,71.36
2023-05-10T12:44:42.927Z,70.20
2023-05-10T12:47:13.637Z,70.67
2023-05-10T12:49:41.579Z,71.08
2023-05-10T12:52:09.437Z,71.16
2023-05-10T12:54:37.348Z,71.19
2023-05-10T12:57:05.344Z,72.42
2023-05-10T12:59:33.934Z,71.87
2023-05-10T13:02:04.085Z,72.75
2023-05-10T13:04:31.997Z,73.54
2023-05-10T13:07:00.199Z,75.22
2023-05-10T13:09:30.364Z,74.53
2023-05-10T13:11:58.345Z,75.25
2023-05-10T13:14:26.744Z,74.92
2023-05-10T13:16:54.862Z,75.12
2023-05-10T13:19:24.223Z,74.70
2023-05-10T13:21:52.649Z,73.60
2023-05-10T13:24:20.576Z,74.89
2023-05-10T13:26:48.489Z,74.90
2023-05-10T13:29:20.176Z,72.99
2023-05-10T13:31:48.223Z,73.46
2023-05-10T13:34:16.130Z,73.84
2023-05-10T13:36:45.985Z,76.05
2023-05-10T13:39:13.912Z,76.34
2023-05-10T13:41:42.063Z,76.28
2023-05-10T13:44:12.275Z,77.00
2023-05-10T13:46:40.293Z,80.20
2023-05-10T13:49:08.328Z,80.77
2023-05-10T13:51:37.081Z,79.14
2023-05-10T13:54:06.401Z,80.92
2023-05-10T13:56:34.420Z,79.96
2023-05-10T13:59:02.949Z,80.96
2023-05-10T14:01:30.908Z,82.69
2023-05-10T14:03:58.916Z,81.05
2023-05-10T14:06:27.999Z,80.88
2023-05-10T14:08:56.262Z,80.13
2023-05-10T14:11:25.780Z,78.80
2023-05-10T14:13:53.686Z,76.13
2023-05-10T14:16:21.759Z,74.83
2023-05-10T14:18:50.185Z,76.67
2023-05-10T14:21:18.171Z,75.34
2023-05-10T14:23:46.107Z,71.86
2023-05-10T14:26:13.961Z,73.28
2023-05-10T14:28:43.299Z,73.54
2023-05-10T14:31:11.255Z,72.01
2023-05-10T14:33:39.181Z,73.10
2023-05-10T14:36:07.830Z,72.70
2023-05-10T14:38:35.790Z,74.14
2023-05-10T14:41:03.672Z,75.20
2023-05-10T14:43:32.060Z,74.75
2023-05-10T14:46:01.418Z,76.47
2023-05-10T14:48:29.369Z,74.36
2023-05-10T14:50:57.226Z,72.95
2023-05-10T14:53:25.157Z,74.31
2023-05-10T14:55:53.321Z,74.60
2023-05-10T14:58:21.196Z,75.08
2023-05-10T15:00:52.018Z,74.91
2023-05-10T15:03:22.384Z,74.46
2023-05-10T15:05:50.740Z,75.14
2023-05-10T15:08:18.598Z,75.11
2023-05-10T15:10:46.489Z,74.11
2023-05-10T15:13:14.384Z,74.69
2023-05-10T15:15:42.459Z,74.30
2023-05-10T15:18:10.983Z,73.56
2023-05-10T15:20:40.486Z,73.81
2023-05-10T15:23:08.358Z,74.17
2023-05-10T15:25:39.575Z,73.31
2023-05-10T15:28:09.872Z,73.40
2023-05-10T15:30:37.794Z,74.22
2023-05-10T15:33:05.750Z,73.82
2023-05-10T15:35:34.377Z,74.00
2023-05-10T15:38:03.558Z,71.99
2023-05-10T15:40:31.485Z,73.18
2023-05-10T15:42:59.458Z,74.11
2023-05-10T15:45:30.423Z,73.96
2023-05-10T15:47:58.440Z,74.23
2023-05-10T15:50:26.343Z,74.00
2023-05-10T15:52:54.242Z,73.44
2023-05-10T15:55:23.445Z,73.60
2023-05-10T15:57:51.381Z,73.47
2023-05-10T16:00:19.812Z,75.72
2023-05-10T16:02:47.984Z,77.50
2023-05-10T16:05:17.009Z,78.39
2023-05-10T16:07:45.387Z,79.46
2023-05-10T16:10:13.290Z,79.09
2023-05-10T16:12:42.632Z,80.33
2023-05-10T16:15:11.432Z,81.10
2023-05-10T16:17:39.485Z,80.81
2023-05-10T16:20:08.764Z,81.35
2023-05-10T16:22:36.892Z,80.80
2023-05-10T16:25:05.468Z,81.48
2023-05-10T16:27:33.898Z,80.58
2023-05-10T16:30:03.241Z,81.64
2023-05-10T16:32:33.892Z,81.14
2023-05-10T16:35:01.958Z,81.00
2023-05-10T16:37:29.983Z,81.27
2023-05-10T16:39:57.833Z,81.17
2023-05-10T16:42:26.136Z,82.03
2023-05-10T16:44:55.020Z,82.23
2023-05-10T16:47:26.735Z,82.10
2023-05-10T16:49:54.856Z,81.41
2023-05-10T16:52:23.788Z,81.94
2023-05-10T16:54:51.665Z,81.88
2023-05-10T16:57:19.505Z,82.69
2023-05-10T16:59:47.343Z,82.10
2023-05-10T17:02:15.677Z,82.80
2023-05-10T17:04:45.050Z,82.83
2023-05-10T17:07:13.257Z,82.85
2023-05-10T17:09:41.839Z,83.25
2023-05-10T17:12:09.792Z,84.08
2023-05-10T17:14:38.602Z,82.72
2023-05-10T17:17:06.815Z,83.84
2023-05-10T17:19:35.082Z,83.38
2023-05-10T17:22:04.478Z,84.06
2023-05-10T17:24:33.050Z,83.85
2023-05-10T17:27:03.532Z,83.77
2023-05-10T17:29:32.177Z,84.54
2023-05-10T17:32:00.713Z,84.42
2023-05-10T17:34:28.836Z,84.95
2023-05-10T17:36:57.585Z,84.17
2023-05-10T17:39:26.959Z,84.45
2023-05-10T17:41:54.911Z,84.13
2023-05-10T17:44:22.870Z,85.00
2023-05-10T17:46:50.739Z,84.00
2023-05-10T17:49:18.706Z,84.19
2023-05-10T17:51:48.060Z,84.12
2023-05-10T17:54:16.606Z,85.11
2023-05-10T17:56:46.334Z,85.05
2023-05-10T17:59:14.256Z,83.98
2023-05-10T18:01:42.558Z,84.42
2023-05-10T18:04:10.450Z,84.47
2023-05-10T18:06:39.120Z,85.47
2023-05-10T18:09:07.454Z,84.51
2023-05-10T18:11:36.448Z,84.67
2023-05-10T18:14:05.773Z,84.98
2023-05-10T18:16:33.718Z,85.37
2023-05-10T18:19:01.774Z,85.99
2023-05-10T18:21:29.750Z,86.70
2023-05-10T18:23:57.737Z,85.72
2023-05-10T18:26:26.074Z,86.08
2023-05-10T18:28:53.977Z,85.82
2023-05-10T18:31:23.766Z,85.13
2023-05-10T18:33:51.813Z,86.58
2023-05-10T18:36:19.791Z,86.29
2023-05-10T18:38:47.857Z,85.52
2023-05-10T18:41:16.187Z,85.83
2023-05-10T18:43:44.350Z,86.58
2023-05-10T18:46:12.304Z,87.33
2023-05-10T18:48:41.830Z,86.60
2023-05-10T18:51:10.403Z,86.91
2023-05-10T18:53:38.515Z,86.36
2023-05-10T18:56:07.252Z,86.81
2023-05-10T18:58:36.058Z,86.86
2023-05-10T19:01:04.042Z,86.99
2023-05-10T19:03:31.989Z,87.02
2023-05-10T19:06:01.362Z,87.01
2023-05-10T19:08:29.631Z,86.45
2023-05-10T19:10:57.663Z,87.15
2023-05-10T19:13:27.619Z,87.65
2023-05-10T19:16:06.689Z,87.57
2023-05-10T19:18:35.142Z,87.59
2023-05-10T19:21:09.394Z,87.00
2023-05-10T19:23:39.725Z,87.11
2023-05-10T19:26:08.882Z,87.37
2023-05-10T19:28:37.810Z,86.66
2023-05-10T19:31:06.269Z,86.76
2023-05-10T19:33:34.334Z,87.02
2023-05-10T19:36:02.342Z,87.15
2023-05-10T19:38:31.811Z,87.23
2023-05-10T19:41:00.111Z,87.00
2023-05-10T19:43:31.445Z,86.94
2023-05-10T19:46:03.034Z,87.26
2023-05-10T19:48:32.122Z,87.06
2023-05-10T19:51:02.363Z,87.63
2023-05-10T19:53:32.465Z,87.58
2023-05-10T19:56:05.375Z,88.28
2023-05-10T19:58:33.706Z,87.54
2023-05-10T20:01:02.275Z,87.82
2023-05-10T20:03:30.555Z,87.75
2023-05-10T20:05:58.593Z,87.85
2023-05-10T20:08:26.700Z,88.46
2023-05-10T20:10:57.843Z,88.35
2023-05-10T20:13:25.929Z,88.39
2023-05-10T20:15:56.880Z,88.32
2023-05-10T20:18:25.122Z,87.48
2023-05-10T20:20:56.133Z,87.65
2023-05-10T20:23:24.388Z,88.37
2023-05-10T20:25:52.870Z,88.61
2023-05-10T20:28:25.346Z,87.96
2023-05-10T20:30:55.645Z,87.69
2023-05-10T20:33:23.888Z,88.68
2023-05-10T20:35:52.504Z,87.37
2023-05-10T20:38:21.400Z,87.02
2023-05-10T20:40:49.550Z,87.05
2023-05-10T20:43:18.820Z,86.71
2023-05-10T20:45:48.163Z,86.90
2023-05-10T20:48:16.795Z,86.61
2023-05-10T20:50:44.760Z,86.96
2023-05-10T20:53:14.418Z,87.33
2023-05-10T20:55:42.371Z,87.22
2023-05-10T20:58:10.318Z,88.08
2023-05-10T21:00:38.271Z,87.11
2023-05-10T21:03:07.660Z,88.19
2023-05-10T21:05:36.155Z,87.68
2023-05-10T21:08:04.067Z,87.65
2023-05-10T21:10:31.977Z,86.58
2023-05-10T21:12:59.905Z,86.26
2023-05-10T21:15:27.826Z,87.24
2023-05-10T21:17:55.819Z,87.16
2023-05-10T21:20:25.269Z,87.38
2023-05-10T21:22:53.273Z,87.79
2023-05-10T21:25:21.166Z,87.79
2023-05-10T21:27:49.095Z,87.17
2023-05-10T21:30:17.289Z,87.16
2023-05-10T21:32:45.391Z,87.70
2023-05-10T21:35:13.262Z,88.53
2023-05-10T21:37:42.694Z,88.01
2023-05-10T21:40:11.882Z,87.53
2023-05-10T21:42:39.696Z,87.91
2023-05-10T21:45:08.554Z,87.67
2023-05-10T21:47:36.515Z,87.81
2023-05-10T21:50:04.499Z,87.75
2023-05-10T21:52:32.384Z,88.05
2023-05-10T21:55:01.551Z,88.03
2023-05-10T21:57:29.398Z,89.16
2023-05-10T21:59:57.325Z,88.09
2023-05-10T22:02:25.507Z,88.41
2023-05-10T22:04:53.416Z,89.50
2023-05-10T22:07:21.235Z,89.25
2023-05-10T22:09:49.081Z,89.22
2023-05-10T22:12:18.612Z,89.36
2023-05-10T22:14:47.495Z,89.42
2023-05-10T22:17:18.121Z,90.03
2023-05-10T22:19:45.996Z,90.54
2023-05-10T22:22:13.937Z,90.40
2023-05-10T22:24:41.792Z,89.62
2023-05-10T22:27:09.759Z,89.67
2023-05-10T22:29:39.056Z,88.73
2023-05-10T22:32:06.947Z,89.38
2023-05-10T22:34:35.471Z,89.58
2023-05-10T22:37:04.108Z,88.57
2023-05-10T22:39:31.918Z,89.14
2023-05-10T22:41:59.756Z,89.56
2023-05-10T22:44:27.706Z,88.48
2023-05-10T22:46:56.955Z,89.00
2023-05-10T22:49:24.798Z,89.41
2023-05-10T22:51:52.701Z,89.42
2023-05-10T22:54:20.678Z,89.24
2023-05-10T22:56:48.632Z,89.29
2023-05-10T22:59:16.708Z,89.39
2023-05-10T23:01:44.698Z,89.62
2023-05-10T23:04:14.038Z,89.95
2023-05-10T23:06:42.374Z,89.99
2023-05-10T23:09:10.360Z,89.36
2023-05-10T23:11:38.225Z,89.29
2023-05-10T23:14:06.230Z,88.72
2023-05-10T23:16:34.288Z,89.75
2023-05-10T23:19:02.299Z,89.10
2023-05-10T23:21:32.287Z,89.23
2023-05-10T23:24:00.677Z,90.06
2023-05-10T23:26:28.705Z,90.19
2023-05-10T23:28:56.832Z,90.35
2023-05-10T23:31:24.837Z,90.21
2023-05-10T23:33:52.808Z,90.87
2023-05-10T23:36:20.739Z,91.07
2023-05-10T23:38:50.070Z,90.92
2023-05-10T23:41:18.027Z,91.69
2023-05-10T23:43:45.940Z,90.98
2023-05-10T23:46:13.908Z,90.98
2023-05-10T23:48:41.857Z,90.83
2023-05-10T23:51:09.822Z,91.09
2023-05-10T23:53:37.797Z,91.41
2023-05-10T23:56:07.477Z,91.46
2023-05-10T23:58:35.419Z,91.89
